^^
Grace C. Lehan Memorial Weather Station Historical Data
Daily Summary for October 30, 2021 Units:  English    Metric   Both
Daily Weekly Monthly Yearly
  High: Low: Average:
Temperature: 59.1 °F 47.8 °F 53.4 °F
Dew Point: 58.2 °F 44.5 °F 52.3 °F
Humidity: 97% 84% 96%
Wind Speed: 2.1mph 0mph 0.2mph
Wind Gust: 12mph - -
Wind- - South
Pressure: 29.82 in 29.50 in -
Precipitation: 0.68 in    
 
 
Tabular Data for October 30, 2021
Time Temperature Dew Point Pressure Wind Wind Speed Wind Gust Humidity Rainfall Rate (Hourly) solar
00:00 49.1 °F 44.5 °F 29.78 in ENE 2 mph 10 mph 84% 0.01 in 0 W/m2
00:09 48.8 °F 44.6 °F 29.77 in ENE 0.4 mph 4 mph 85.4% 0.01 in 0 W/m2
00:14 48.7 °F 44.7 °F 29.77 in NE 2.1 mph 12 mph 86% 0.02 in 0 W/m2
00:19 48.6 °F 44.6 °F 29.80 in Calm   12 mph 86% 0.02 in 0 W/m2
00:24 48.6 °F 44.8 °F 29.80 in NE 0.3 mph 12 mph 86.9% 0.02 in 0 W/m2
00:29 48.6 °F 44.9 °F 29.82 in Calm   12 mph 87% 0.03 in 0 W/m2
00:34 48.5 °F 45 °F 29.82 in Calm   12 mph 87.6% 0.03 in 0 W/m2
00:39 48.5 °F 45.1 °F 29.81 in NE 0.1 mph 2 mph 88% 0.05 in 0 W/m2
00:44 48.5 °F 45.4 °F 29.81 in NE 1 mph 4 mph 88.9% 0.06 in 0 W/m2
00:49 48.4 °F 45.3 °F 29.80 in NE 0.8 mph 5 mph 89% 0.06 in 0 W/m2
00:54 48.3 °F 45.4 °F 29.79 in ENE 0.4 mph 6 mph 89.5% 0.07 in 0 W/m2
00:59 48.2 °F 45.6 °F 29.79 in ENE 0.1 mph 6 mph 90.7% 0.07 in 0 W/m2
01:04 48.1 °F 45.4 °F 29.78 in ENE 0.2 mph 6 mph 90.3% 0.07 in 0 W/m2
01:09 48 °F 45.5 °F 29.79 in ENE 0.3 mph 3 mph 91% 0.05 in 0 W/m2
01:14 47.9 °F 45.4 °F 29.79 in ENE 0.5 mph 4 mph 91% 0.05 in 0 W/m2
01:19 47.9 °F 45.5 °F 29.79 in ENE 0.3 mph 4 mph 91.2% 0.05 in 0 W/m2
01:24 47.9 °F 45.7 °F 29.79 in NE 0.5 mph 5 mph 92% 0.05 in 0 W/m2
01:29 47.9 °F 45.7 °F 29.79 in NE 0.1 mph 5 mph 92% 0.05 in 0 W/m2
01:34 47.9 °F 45.7 °F 29.79 in NE 0.1 mph 5 mph 92% 0.05 in 0 W/m2
01:39 47.9 °F 45.8 °F 29.79 in NE 0.8 mph 7 mph 92.3% 0.06 in 0 W/m2
01:44 47.9 °F 45.9 °F 29.79 in ENE 0.2 mph 7 mph 92.7% 0.07 in 0 W/m2
01:49 47.9 °F 46 °F 29.79 in NE 1 mph 8 mph 93% 0.07 in 0 W/m2
01:54 47.9 °F 46 °F 29.78 in ENE 0.1 mph 8 mph 93% 0.08 in 0 W/m2
01:59 47.9 °F 46 °F 29.78 in NE 1.4 mph 8 mph 93% 0.08 in 0 W/m2
02:04 47.9 °F 46 °F 29.78 in ENE 1.1 mph 8 mph 93% 0.08 in 0 W/m2
02:09 47.9 °F 46 °F 29.77 in ENE 1.1 mph 6 mph 93% 0.05 in 0 W/m2
02:14 47.9 °F 46.1 °F 29.77 in NE 0.5 mph 6 mph 93.6% 0.05 in 0 W/m2
02:19 47.8 °F 46.2 °F 29.78 in NE 0.1 mph 6 mph 94% 0.05 in 0 W/m2
02:24 47.8 °F 46.2 °F 29.78 in NE 0.2 mph 6 mph 94% 0.05 in 0 W/m2
02:29 47.8 °F 46.2 °F 29.78 in ENE 0.8 mph 6 mph 94% 0.05 in 0 W/m2
02:34 47.9 °F 46.3 °F 29.77 in NE 2 mph 6 mph 94% 0.05 in 0 W/m2
02:39 47.9 °F 46.3 °F 29.77 in ENE 0.6 mph 6 mph 94% 0.04 in 0 W/m2
02:44 47.9 °F 46.3 °F 29.77 in NE 0.2 mph 6 mph 94% 0.04 in 0 W/m2
02:49 47.9 °F 46.3 °F 29.77 in NNW 0.2 mph 6 mph 94% 0.04 in 0 W/m2
02:54 47.9 °F 46.3 °F 29.77 in ENE 0.3 mph 6 mph 94% 0.04 in 0 W/m2
02:59 47.9 °F 46.3 °F 29.77 in NE 0.9 mph 7 mph 94% 0.04 in 0 W/m2
03:04 47.9 °F 46.3 °F 29.76 in NE 0.2 mph 7 mph 94% 0.04 in 0 W/m2
03:09 47.9 °F 46.3 °F 29.76 in ENE 0.3 mph 5 mph 94% 0.02 in 0 W/m2
03:14 47.8 °F 46.2 °F 29.76 in ENE 0.9 mph 5 mph 94% 0.02 in 0 W/m2
03:19 47.8 °F 46.2 °F 29.75 in NE 1.1 mph 6 mph 94% 0.02 in 0 W/m2
03:24 47.8 °F 46.2 °F 29.75 in ENE 0.3 mph 6 mph 94.1% 0.02 in 0 W/m2
03:29 47.8 °F 46.4 °F 29.76 in ENE 0.4 mph 7 mph 95% 0.02 in 0 W/m2
03:32 47.8 °F 46.4 °F 29.76 in ENE 0.1 mph 7 mph 95% 0.02 in 0 W/m2
04:09 48 °F 46.6 °F 29.73 in Calm     95% 0.01 in 0 W/m2
04:14 48 °F 46.6 °F 29.74 in NW 0.5 mph 6 mph 95% 0.01 in 0 W/m2
04:19 48 °F 46.6 °F 29.74 in North 0.3 mph 7 mph 95% 0.01 in 0 W/m2
04:24 48 °F 46.7 °F 29.73 in NE 0.2 mph 7 mph 95% 0.01 in 0 W/m2
04:29 48 °F 46.6 °F 29.73 in North 1 mph 7 mph 95% 0.01 in 0 W/m2
04:34 48 °F 46.6 °F 29.73 in NNW 0.4 mph 7 mph 95% 0.01 in 0 W/m2
04:39 48 °F 46.7 °F 29.73 in NNW 0.1 mph 5 mph 95% 0.00 in 0 W/m2
04:44 48 °F 46.7 °F 29.73 in NNW 0.1 mph 5 mph 95% 0.00 in 0 W/m2
04:49 48.1 °F 46.7 °F 29.73 in NNW 0.3 mph 6 mph 95% 0.00 in 0 W/m2
04:54 48.1 °F 46.7 °F 29.73 in NNW 0.7 mph 10 mph 95% 0.00 in 0 W/m2
04:59 48.1 °F 46.7 °F 29.73 in NNW 0.3 mph 10 mph 95% 0.00 in 0 W/m2
05:04 48.1 °F 46.7 °F 29.72 in NNW 0.1 mph 10 mph 95% 0.00 in 0 W/m2
05:09 48.1 °F 46.7 °F 29.73 in NNW 0.2 mph 3 mph 95% 0.00 in 0 W/m2
05:14 48.1 °F 46.7 °F 29.73 in NNW 0.5 mph 5 mph 95% 0.00 in 0 W/m2
05:19 48.1 °F 46.7 °F 29.73 in NNW 0.7 mph 6 mph 95% 0.00 in 0 W/m2
05:24 48.1 °F 46.8 °F 29.73 in Calm   6 mph 95% 0.00 in 0 W/m2
05:29 48.2 °F 46.8 °F 29.73 in NNE 0.2 mph 6 mph 95% 0.00 in 0 W/m2
05:34 48.2 °F 46.8 °F 29.72 in NNW 0.4 mph 6 mph 95% 0.00 in 0 W/m2
05:39 48.2 °F 46.8 °F 29.72 in Calm   6 mph 95% 0.00 in 0 W/m2
05:44 48.2 °F 46.8 °F 29.72 in NE 0.2 mph 6 mph 95% 0.00 in 0 W/m2
05:49 48.2 °F 46.8 °F 29.72 in North 0.3 mph 6 mph 95% 0.01 in 0 W/m2
05:54 48.2 °F 46.8 °F 29.72 in North 0.5 mph 7 mph 95% 0.01 in 0 W/m2
05:59 48.3 °F 46.9 °F 29.72 in NW 0.3 mph 7 mph 95% 0.01 in 0 W/m2
06:04 48.3 °F 46.9 °F 29.72 in North 0.3 mph 7 mph 95% 0.01 in 0 W/m2
06:09 48.3 °F 47.2 °F 29.72 in NE 0.5 mph 5 mph 95.7% 0.01 in 0 W/m2
06:14 48.4 °F 47.3 °F 29.72 in Calm   5 mph 96% 0.01 in 0 W/m2
06:19 48.5 °F 47.4 °F 29.71 in West 0.1 mph 5 mph 96% 0.01 in 0 W/m2
06:24 48.5 °F 47.4 °F 29.71 in North 0.1 mph 5 mph 96% 0.01 in 0 W/m2
06:29 48.5 °F 47.4 °F 29.71 in North 0.8 mph 10 mph 96% 0.01 in 0 W/m2
06:34 48.6 °F 47.5 °F 29.71 in NNW 0.2 mph 10 mph 96% 0.01 in 0 W/m2
06:39 48.6 °F 47.5 °F 29.71 in NW 0.2 mph 9 mph 96% 0.01 in 0 W/m2
06:44 48.7 °F 47.6 °F 29.70 in NNW 1.1 mph 12 mph 96% 0.02 in 0 W/m2
06:49 48.7 °F 47.6 °F 29.70 in NE 1.4 mph 12 mph 96% 0.02 in 0 W/m2
06:54 48.7 °F 47.6 °F 29.70 in NNW 0.8 mph 12 mph 96% 0.02 in 0 W/m2
06:59 48.7 °F 47.6 °F 29.69 in Calm   12 mph 96% 0.02 in 0 W/m2
07:04 48.7 °F 47.7 °F 29.69 in NE 0.1 mph 12 mph 96% 0.02 in 0 W/m2
07:09 48.8 °F 47.7 °F 29.69 in NE 0.3 mph 4 mph 96% 0.01 in 0 W/m2
07:14 48.9 °F 47.8 °F 29.69 in NNE 0.1 mph 4 mph 96% 0.01 in 0 W/m2
07:19 48.9 °F 47.8 °F 29.69 in North 0.9 mph 6 mph 96% 0.01 in 0 W/m2
07:24 49 °F 47.9 °F 29.69 in NW 0.5 mph 6 mph 96% 0.01 in 0 W/m2
07:29 49 °F 47.9 °F 29.69 in NW 0.6 mph 6 mph 96% 0.01 in 0 W/m2
07:34 49.1 °F 48 °F 29.70 in NNW 0.8 mph 6 mph 96% 0.02 in 0 W/m2
07:39 49.1 °F 48 °F 29.70 in NNW 0.8 mph 6 mph 96% 0.02 in 0 W/m2
07:44 49.2 °F 48.1 °F 29.71 in WNW 0.1 mph 6 mph 96% 0.02 in 0 W/m2
07:49 49.2 °F 48.2 °F 29.71 in NW 0.3 mph 6 mph 96% 0.03 in 0 W/m2
07:54 49.3 °F 48.2 °F 29.71 in North 0.5 mph 6 mph 96% 0.03 in 0 W/m2
07:59 49.4 °F 48.3 °F 29.71 in Calm   6 mph 96% 0.03 in 9 W/m2
08:09 49.6 °F 48.5 °F 29.70 in NW 0.6 mph 4 mph 96% 0.03 in 11 W/m2
08:14 49.6 °F 48.5 °F 29.70 in NW 1 mph 10 mph 96% 0.03 in 7 W/m2
08:19 49.7 °F 48.6 °F 29.70 in NW 0.5 mph 10 mph 96% 0.04 in 16 W/m2
08:24 49.7 °F 48.6 °F 29.71 in NW 0.7 mph 10 mph 96% 0.04 in 21 W/m2
08:29 49.8 °F 48.7 °F 29.71 in West 0.3 mph 10 mph 96% 0.04 in 16 W/m2
08:34 49.8 °F 48.7 °F 29.71 in Calm   10 mph 96% 0.04 in 21 W/m2
08:39 49.9 °F 48.8 °F 29.71 in WNW 0.1 mph 4 mph 96% 0.03 in 21 W/m2
08:44 49.9 °F 48.8 °F 29.71 in Calm   4 mph 96% 0.05 in 26 W/m2
08:49 50 °F 48.9 °F 29.72 in Calm   4 mph 96% 0.05 in 26 W/m2
08:54 50.1 °F 49 °F 29.71 in Calm   4 mph 96% 0.05 in 37 W/m2
08:59 50.2 °F 49.1 °F 29.71 in Calm   4 mph 96% 0.05 in 95 W/m2
09:04 50.3 °F 49.2 °F 29.72 in Calm   4 mph 96% 0.05 in 37 W/m2
09:09 50.4 °F 49.3 °F 29.73 in Calm   1 mph 96% 0.02 in 40 W/m2
09:14 50.5 °F 49.4 °F 29.73 in Calm   1 mph 96% 0.02 in 46 W/m2
09:19 50.6 °F 49.5 °F 29.73 in NW 0.1 mph 2 mph 96% 0.02 in 39 W/m2
09:24 50.8 °F 49.7 °F 29.71 in NW 0.1 mph 2 mph 96% 0.02 in 37 W/m2
09:29 50.8 °F 49.7 °F 29.70 in NNW 0.2 mph 3 mph 96% 0.03 in 60 W/m2
09:34 50.9 °F 49.8 °F 29.71 in NNW 0.2 mph 3 mph 96% 0.03 in 56 W/m2
09:39 51 °F 49.9 °F 29.71 in Calm   3 mph 96% 0.03 in 58 W/m2
09:44 51.1 °F 50 °F 29.71 in ENE 0.4 mph 5 mph 96% 0.03 in 46 W/m2
09:49 51.2 °F 50.1 °F 29.72 in Calm   5 mph 96% 0.03 in 49 W/m2
09:54 51.2 °F 50.1 °F 29.72 in NW 0.2 mph 5 mph 96% 0.03 in 54 W/m2
09:59 51.4 °F 50.3 °F 29.70 in Calm   5 mph 96% 0.03 in 118 W/m2
10:04 51.6 °F 50.5 °F 29.68 in NNE 0.2 mph 5 mph 96% 0.03 in 163 W/m2
10:09 51.7 °F 50.6 °F 29.70 in Calm   4 mph 96% 0.01 in 148 W/m2
10:14 51.8 °F 51 °F 29.71 in ENE 0.1 mph 4 mph 97% 0.01 in 47 W/m2
10:19 51.9 °F 51.1 °F 29.73 in Calm   4 mph 97% 0.01 in 23 W/m2
10:24 52 °F 51.1 °F 29.74 in Calm   4 mph 96.8% 0.01 in 33 W/m2
10:29 52.1 °F 51 °F 29.74 in Calm   4 mph 96% 0.01 in 47 W/m2
10:34 52.2 °F 51.1 °F 29.74 in Calm   4 mph 96% 0.01 in 51 W/m2
10:39 52.3 °F 51.2 °F 29.74 in Calm     96% 0.00 in 33 W/m2
10:44 52.4 °F 51.5 °F 29.73 in Calm     96.8% 0.00 in 49 W/m2
10:49 52.5 °F 51.7 °F 29.73 in Calm   2 mph 97% 0.00 in 53 W/m2
10:54 52.6 °F 51.8 °F 29.73 in Calm   2 mph 97% 0.00 in 47 W/m2
10:59 52.7 °F 51.8 °F 29.72 in Calm   2 mph 96.9% 0.00 in 69 W/m2
11:04 52.7 °F 51.6 °F 29.72 in NNW 0.2 mph 5 mph 96% 0.00 in 69 W/m2
11:09 52.8 °F 51.7 °F 29.72 in North 0.2 mph 5 mph 96% 0.00 in 49 W/m2
11:14 52.8 °F 51.7 °F 29.72 in Calm   5 mph 96% 0.00 in 53 W/m2
11:19 52.9 °F 51.8 °F 29.72 in Calm   5 mph 96% 0.00 in 62 W/m2
11:24 53 °F 51.9 °F 29.71 in Calm   5 mph 96.1% 0.00 in 67 W/m2
11:29 53.1 °F 52.2 °F 29.70 in NNW 0.4 mph 5 mph 97% 0.00 in 111 W/m2
11:34 53.3 °F 52.5 °F 29.69 in NNW 0.2 mph 6 mph 97% 0.00 in 111 W/m2
11:39 53.5 °F 52.7 °F 29.68 in NNW 0.1 mph 6 mph 97% 0.00 in 128 W/m2
11:44 53.7 °F 52.9 °F 29.67 in NNW 0.2 mph 6 mph 97% 0.00 in 109 W/m2
11:49 53.9 °F 53.1 °F 29.67 in North 0.1 mph 6 mph 97% 0.00 in 139 W/m2
11:54 54.1 °F 53.2 °F 29.66 in NNE 0.2 mph 6 mph 97% 0.00 in 153 W/m2
11:59 54.2 °F 53.4 °F 29.66 in Calm   6 mph 97% 0.00 in 113 W/m2
12:00 54.3 °F 53.5 °F 29.66 in Calm   6 mph 97% 0.00 in 111 W/m2
12:09 54.6 °F 53.7 °F 29.66 in NNW 0.1 mph 2 mph 97% 0.00 in 156 W/m2
12:14 54.8 °F 54 °F 29.65 in Calm   2 mph 97% 0.00 in 113 W/m2
12:19 55 °F 54.2 °F 29.66 in Calm   2 mph 97% 0.00 in 100 W/m2
12:24 55.1 °F 54.3 °F 29.66 in Calm   2 mph 97% 0.00 in 69 W/m2
12:29 55.2 °F 54.4 °F 29.67 in Calm   2 mph 97% 0.00 in 54 W/m2
12:34 55.2 °F 54.4 °F 29.68 in Calm   2 mph 97% 0.00 in 37 W/m2
12:38 55.2 °F 54.4 °F 29.68 in Calm     97% 0.01 in 46 W/m2
12:44 55.2 °F 54.4 °F 29.68 in Calm     97% 0.02 in 104 W/m2
12:49 55.4 °F 54.6 °F 29.67 in Calm     97% 0.02 in 125 W/m2
12:54 55.6 °F 54.7 °F 29.67 in Calm     97% 0.03 in 105 W/m2
12:59 55.7 °F 54.9 °F 29.67 in Calm     97% 0.03 in 77 W/m2
13:04 55.7 °F 54.9 °F 29.68 in Calm     97% 0.03 in 40 W/m2
13:09 55.7 °F 54.9 °F 29.69 in Calm     97% 0.04 in 28 W/m2
13:14 55.7 °F 54.9 °F 29.69 in North 0.1 mph 2 mph 97% 0.05 in 56 W/m2
13:19 55.8 °F 55 °F 29.68 in Calm   2 mph 97% 0.06 in 76 W/m2
13:24 55.8 °F 55 °F 29.67 in Calm   2 mph 97% 0.06 in 90 W/m2
13:29 55.9 °F 55 °F 29.67 in Calm   2 mph 97% 0.07 in 100 W/m2
13:34 55.9 °F 55.1 °F 29.66 in Calm   2 mph 97% 0.07 in 113 W/m2
13:39 56.2 °F 55.3 °F 29.66 in Calm     97% 0.08 in 69 W/m2
13:44 56.4 °F 55.5 °F 29.66 in Calm     97% 0.08 in 30 W/m2
13:48 56.5 °F 55.7 °F 29.66 in Calm     97% 0.08 in 47 W/m2
13:54 56.6 °F 55.7 °F 29.65 in Calm     97% 0.08 in 63 W/m2
13:59 56.6 °F 55.8 °F 29.65 in Calm     97% 0.09 in 67 W/m2
14:04 56.7 °F 55.9 °F 29.66 in Calm     97% 0.09 in 40 W/m2
14:09 56.7 °F 55.9 °F 29.66 in Calm     97% 0.07 in 65 W/m2
14:14 56.8 °F 55.9 °F 29.66 in Calm     97% 0.08 in 65 W/m2
14:19 56.8 °F 56 °F 29.66 in Calm     97% 0.09 in 51 W/m2
14:24 56.9 °F 56.1 °F 29.66 in Calm     97% 0.09 in 54 W/m2
14:29 57 °F 56.2 °F 29.66 in Calm     97% 0.10 in 44 W/m2
14:34 57.1 °F 56.3 °F 29.66 in Calm     97% 0.10 in 39 W/m2
14:39 57.2 °F 56.3 °F 29.65 in Calm     97% 0.07 in 60 W/m2
14:44 57.2 °F 56.4 °F 29.64 in Calm     97% 0.08 in 54 W/m2
14:49 57.3 °F 56.5 °F 29.64 in Calm     97% 0.09 in 42 W/m2
14:54 57.3 °F 56.5 °F 29.64 in Calm     97% 0.09 in 51 W/m2
14:59 57.4 °F 56.6 °F 29.66 in Calm     97% 0.10 in 42 W/m2
15:04 57.4 °F 56.6 °F 29.66 in Calm     97% 0.10 in 26 W/m2
15:09 57.5 °F 56.7 °F 29.66 in Calm     97% 0.09 in 30 W/m2
15:14 57.6 °F 56.8 °F 29.66 in Calm     97% 0.10 in 28 W/m2
15:19 57.6 °F 56.8 °F 29.65 in Calm   1 mph 97% 0.12 in 21 W/m2
15:24 57.6 °F 56.8 °F 29.64 in ESE 0.1 mph 4 mph 97% 0.13 in 63 W/m2
15:29 57.5 °F 56.7 °F 29.65 in Calm   4 mph 97% 0.14 in 63 W/m2
15:34 57.5 °F 56.7 °F 29.65 in Calm   4 mph 97% 0.14 in 28 W/m2
15:39 57.5 °F 56.7 °F 29.65 in Calm     97% 0.12 in 30 W/m2
15:44 57.5 °F 56.6 °F 29.65 in ENE 0.1 mph 2 mph 97% 0.13 in 40 W/m2
15:49 57.3 °F 56.5 °F 29.65 in Calm   2 mph 97% 0.14 in 32 W/m2
15:54 57.2 °F 56.3 °F 29.65 in Calm   2 mph 97% 0.15 in 26 W/m2
15:59 57.1 °F 56.2 °F 29.65 in Calm   2 mph 97% 0.15 in 30 W/m2
16:00 57 °F 56.2 °F 29.65 in Calm   2 mph 97% 0.15 in 26 W/m2
16:09 57 °F 56.2 °F 29.66 in Calm     97% 0.18 in 37 W/m2
16:14 57 °F 56.2 °F 29.66 in Calm     97% 0.20 in 33 W/m2
16:19 57.1 °F 56.3 °F 29.66 in Calm     97% 0.22 in 18 W/m2
16:24 57.2 °F 56.3 °F 29.66 in Calm     97% 0.23 in 16 W/m2
16:29 57.2 °F 56.4 °F 29.66 in Calm     97% 0.24 in 16 W/m2
16:34 57.2 °F 56.4 °F 29.65 in Calm     97% 0.24 in 18 W/m2
16:39 57.2 °F 56.4 °F 29.65 in Calm     97% 0.15 in 32 W/m2
16:44 57.2 °F 56.4 °F 29.65 in Calm     97% 0.15 in 33 W/m2
16:49 57.3 °F 56.4 °F 29.65 in Calm     97% 0.16 in 11 W/m2
16:54 57.2 °F 56.4 °F 29.65 in Calm     97% 0.16 in 5 W/m2
16:59 57.2 °F 56.4 °F 29.65 in Calm     97% 0.16 in 0 W/m2
17:04 57.2 °F 56.4 °F 29.65 in Calm     97% 0.16 in 0 W/m2
17:09 57.2 °F 56.4 °F 29.65 in Calm     97% 0.03 in 0 W/m2
17:14 57.2 °F 56.3 °F 29.64 in Calm     97% 0.03 in 5 W/m2
17:19 57.1 °F 56.3 °F 29.64 in Calm     97% 0.03 in 5 W/m2
17:24 57.1 °F 56.3 °F 29.64 in Calm     97% 0.03 in 0 W/m2
17:29 57.1 °F 56.3 °F 29.64 in Calm     97% 0.03 in 0 W/m2
17:34 57.1 °F 56.3 °F 29.64 in Calm     97% 0.03 in 0 W/m2
17:39 57.1 °F 56.3 °F 29.64 in Calm     97% 0.03 in 0 W/m2
17:44 57 °F 56.2 °F 29.63 in Calm     97% 0.03 in 0 W/m2
17:49 57 °F 56.2 °F 29.63 in Calm     97% 0.03 in 0 W/m2
17:54 57 °F 56.1 °F 29.63 in Calm     97% 0.04 in 0 W/m2
17:59 56.9 °F 56.1 °F 29.64 in Calm     97% 0.04 in 0 W/m2
18:04 56.9 °F 56.1 °F 29.64 in Calm     97% 0.04 in 0 W/m2
18:09 56.9 °F 56.1 °F 29.64 in Calm     97% 0.05 in 0 W/m2
18:14 56.9 °F 56.1 °F 29.64 in Calm     97% 0.06 in 0 W/m2
18:19 56.9 °F 56.1 °F 29.64 in Calm     97% 0.07 in 0 W/m2
18:24 56.9 °F 56.1 °F 29.63 in Calm     97% 0.07 in 0 W/m2
18:29 56.9 °F 56.1 °F 29.63 in Calm     97% 0.07 in 0 W/m2
18:34 56.9 °F 56.1 °F 29.62 in Calm     97% 0.07 in 0 W/m2
18:39 56.9 °F 56.1 °F 29.61 in Calm     97% 0.06 in 0 W/m2
18:44 56.9 °F 56.1 °F 29.61 in Calm     97% 0.06 in 0 W/m2
18:49 57 °F 56.1 °F 29.61 in ENE 0.1 mph 3 mph 97% 0.06 in 0 W/m2
18:54 57.1 °F 56.2 °F 29.60 in Calm   3 mph 97% 0.06 in 0 W/m2
18:59 57.1 °F 56.3 °F 29.60 in Calm   3 mph 97% 0.06 in 0 W/m2
19:04 57.2 °F 56.4 °F 29.60 in Calm   3 mph 97% 0.06 in 0 W/m2
19:09 57.2 °F 56.4 °F 29.60 in ENE 0.1 mph 2 mph 97% 0.05 in 0 W/m2
19:14 57.3 °F 56.4 °F 29.60 in Calm   2 mph 97% 0.05 in 0 W/m2
19:19 57.3 °F 56.5 °F 29.60 in Calm   2 mph 97% 0.05 in 0 W/m2
19:24 57.3 °F 56.5 °F 29.60 in Calm   2 mph 97% 0.05 in 0 W/m2
19:29 57.4 °F 56.5 °F 29.60 in Calm   2 mph 97% 0.05 in 0 W/m2
19:34 57.5 °F 56.6 °F 29.59 in ENE 0.1 mph 3 mph 97% 0.05 in 0 W/m2
19:39 57.5 °F 56.7 °F 29.59 in ENE 1.3 mph 5 mph 97% 0.00 in 0 W/m2
19:44 57.6 °F 56.8 °F 29.59 in ENE 0.4 mph 5 mph 97% 0.01 in 0 W/m2
19:49 57.6 °F 56.8 °F 29.58 in ENE 0.7 mph 5 mph 97% 0.01 in 0 W/m2
19:54 57.7 °F 56.9 °F 29.58 in Calm   5 mph 97% 0.01 in 0 W/m2
19:59 57.7 °F 56.9 °F 29.59 in Calm   5 mph 97% 0.01 in 0 W/m2
20:00 57.7 °F 56.9 °F 29.58 in Calm   5 mph 97% 0.01 in 0 W/m2
20:09 57.8 °F 57 °F 29.59 in Calm     97% 0.01 in 0 W/m2
20:14 57.8 °F 57 °F 29.59 in Calm     97% 0.01 in 0 W/m2
20:19 57.9 °F 57 °F 29.59 in ENE 0.1 mph 1 mph 97% 0.01 in 0 W/m2
20:24 58.1 °F 57.3 °F 29.59 in Calm   1 mph 97% 0.01 in 0 W/m2
20:29 58.5 °F 57.6 °F 29.59 in Calm   1 mph 97% 0.01 in 0 W/m2
20:34 58.7 °F 57.9 °F 29.59 in ENE 0.2 mph 3 mph 97% 0.01 in 0 W/m2
20:39 58.8 °F 58 °F 29.59 in Calm   3 mph 97% 0.01 in 0 W/m2
20:44 58.9 °F 58 °F 29.59 in Calm   3 mph 97% 0.01 in 0 W/m2
20:49 59 °F 58.1 °F 29.58 in Calm   3 mph 97% 0.01 in 0 W/m2
20:54 59.1 °F 58.2 °F 29.58 in Calm   3 mph 97% 0.01 in 0 W/m2
20:59 59 °F 58.2 °F 29.57 in Calm   3 mph 97% 0.01 in 0 W/m2
21:04 58.8 °F 58 °F 29.57 in Calm   3 mph 97% 0.01 in 0 W/m2
21:09 58.6 °F 57.8 °F 29.57 in Calm     97% 0.00 in 0 W/m2
21:14 58.5 °F 57.7 °F 29.56 in Calm     97% 0.00 in 0 W/m2
21:19 58.4 °F 57.6 °F 29.55 in ENE 0.1 mph 2 mph 97% 0.00 in 0 W/m2
21:24 58.4 °F 57.6 °F 29.56 in Calm   2 mph 97% 0.00 in 0 W/m2
21:29 58.4 °F 57.6 °F 29.56 in Calm   2 mph 97% 0.00 in 0 W/m2
21:34 58.5 °F 57.7 °F 29.57 in Calm   2 mph 97% 0.00 in 0 W/m2
21:39 58.5 °F 57.7 °F 29.57 in NE 0.1 mph 1 mph 97% 0.00 in 0 W/m2
21:44 58.5 °F 57.7 °F 29.57 in Calm   1 mph 97% 0.00 in 0 W/m2
21:49 58.5 °F 57.6 °F 29.57 in Calm   1 mph 97% 0.00 in 0 W/m2
21:54 58.4 °F 57.6 °F 29.57 in NE 0.2 mph 4 mph 97% 0.00 in 0 W/m2
21:59 58.4 °F 57.6 °F 29.57 in Calm   4 mph 97% 0.00 in 0 W/m2
22:04 58.3 °F 57.5 °F 29.56 in NE 0.1 mph 4 mph 97% 0.00 in 0 W/m2
22:09 58.3 °F 57.5 °F 29.56 in NE 0.4 mph 4 mph 97% 0.00 in 0 W/m2
22:14 58.2 °F 57.4 °F 29.56 in North 0.9 mph 5 mph 97% 0.00 in 0 W/m2
22:19 58.2 °F 57.4 °F 29.55 in NW 0.5 mph 5 mph 97% 0.00 in 0 W/m2
22:24 58.2 °F 57.3 °F 29.55 in NW 0.4 mph 5 mph 97% 0.00 in 0 W/m2
22:29 58.1 °F 57.3 °F 29.54 in NW 0.2 mph 5 mph 97% 0.00 in 0 W/m2
22:34 58.1 °F 57.3 °F 29.53 in NNW 1.3 mph 5 mph 97% 0.00 in 0 W/m2
22:39 58.1 °F 57.2 °F 29.53 in NNW 0.5 mph 5 mph 97% 0.00 in 0 W/m2
22:44 58.2 °F 57.3 °F 29.53 in NW 0.2 mph 6 mph 97% 0.00 in 0 W/m2
22:49 58.2 °F 57.4 °F 29.52 in Calm   6 mph 97% 0.01 in 0 W/m2
22:54 58.2 °F 57.4 °F 29.52 in NW 0.8 mph 6 mph 97% 0.01 in 0 W/m2
22:59 58.2 °F 57.4 °F 29.52 in Calm   6 mph 97% 0.01 in 0 W/m2
23:04 58.3 °F 57.4 °F 29.52 in NW 1.2 mph 7 mph 97% 0.01 in 0 W/m2
23:09 58.2 °F 57.4 °F 29.52 in NW 0.2 mph 7 mph 97% 0.01 in 0 W/m2
23:14 58.2 °F 57.4 °F 29.52 in NW 0.2 mph 7 mph 97% 0.01 in 0 W/m2
23:19 58.1 °F 57.3 °F 29.51 in NW 0.1 mph 7 mph 97% 0.01 in 0 W/m2
23:24 58 °F 57.2 °F 29.51 in NW 0.1 mph 7 mph 97% 0.01 in 0 W/m2
23:29 57.9 °F 57.1 °F 29.51 in Calm   7 mph 97% 0.01 in 0 W/m2
23:34 57.8 °F 57 °F 29.51 in Calm   7 mph 97% 0.01 in 0 W/m2
23:39 57.8 °F 57 °F 29.51 in Calm   2 mph 97% 0.01 in 0 W/m2
23:44 57.7 °F 56.9 °F 29.51 in NW 0.3 mph 3 mph 97% 0.01 in 0 W/m2
23:49 57.7 °F 56.8 °F 29.51 in Calm   3 mph 97% 0.01 in 0 W/m2
23:54 57.6 °F 56.8 °F 29.50 in NW 1 mph 5 mph 97% 0.01 in 0 W/m2
23:59 57.5 °F 56.7 °F 29.50 in NNW 0.7 mph 6 mph 97% 0.01 in 0 W/m2
Hartford County Weather
Compliments of Weather Underground - 2 mb